Time,TemperatureF,DewpointF,PressureIn,WindDirection,WindDirectionDegrees,WindSpeedMPH,WindSpeedGustMPH,Humidity,HourlyPrecipIn,Conditions,Clouds,dailyrainin,SoftwareType,DateUTC
2013-12-25 00:02:00,-1.9,-6.3,30.68,NNW,337,5.0,5.0,81,0.00,,---,0.54,VWS V14.01,2013-12-25 07:02:00,
2013-12-25 00:07:00,-2.0,-6.4,30.69,NNW,337,8.0,8.0,81,0.00,,---,0.00,VWS V14.01,2013-12-25 07:07:00,
2013-12-25 00:12:00,-1.9,-6.3,30.68,NNW,337,2.0,2.0,81,0.00,,---,0.00,VWS V14.01,2013-12-25 07:12:00,
2013-12-25 00:17:00,-1.5,-5.7,30.69,NNW,337,3.0,3.0,82,0.00,,---,0.00,VWS V14.01,2013-12-25 07:17:00,
2013-12-25 00:20:00,-1.5,-5.7,30.69,NNW,337,6.0,6.0,82,0.00,,---,0.00,VWS V14.01,2013-12-25 07:20:00,
2013-12-25 00:25:00,-1.9,-6.3,30.69,NNW,337,0.0,0.0,81,0.00,,---,0.00,VWS V14.01,2013-12-25 07:25:00,
2013-12-25 00:30:00,-2.3,-6.4,30.70,NNW,337,1.0,2.0,82,0.00,,---,0.00,VWS V14.01,2013-12-25 07:30:00,
2013-12-25 00:35:00,-2.6,-6.7,30.70,NNW,337,0.0,0.0,82,0.00,,---,0.00,VWS V14.01,2013-12-25 07:35:00,
2013-12-25 00:40:00,-2.6,-6.5,30.70,NNW,338,8.0,10.0,83,0.00,,---,0.00,VWS V14.01,2013-12-25 07:40:00,
2013-12-25 00:45:00,-2.0,-5.9,30.70,NNW,338,4.0,5.0,83,0.00,,---,0.00,VWS V14.01,2013-12-25 07:45:00,
2013-12-25 00:50:00,-1.5,-5.4,30.70,NNW,338,0.0,0.0,83,0.00,,---,0.00,VWS V14.01,2013-12-25 07:50:00,
2013-12-25 00:55:00,-1.6,-5.7,30.70,NNW,338,4.0,4.0,82,0.00,,---,0.00,VWS V14.01,2013-12-25 07:55:00,
2013-12-25 01:00:00,-1.5,-5.7,30.70,NNW,337,12.0,13.0,82,0.00,,---,0.00,VWS V14.01,2013-12-25 08:00:00,
2013-12-25 01:05:00,-1.3,-5.4,30.70,NNW,335,7.0,9.0,82,0.00,,---,0.00,VWS V14.01,2013-12-25 08:05:00,
2013-12-25 01:10:00,-1.5,-6.2,30.70,NNW,336,8.0,9.0,80,0.00,,---,0.00,VWS V14.01,2013-12-25 08:10:00,
2013-12-25 01:15:00,-1.8,-6.7,30.71,NNW,340,9.0,10.0,79,0.00,,---,0.00,VWS V14.01,2013-12-25 08:15:00,
2013-12-25 01:20:00,-2.2,-7.4,30.71,NNW,336,0.0,0.0,78,0.00,,---,0.00,VWS V14.01,2013-12-25 08:20:00,
2013-12-25 01:25:00,-2.5,-7.7,30.72,NNW,336,7.0,8.0,78,0.00,,---,0.00,VWS V14.01,2013-12-25 08:25:00,
2013-12-25 01:30:00,-2.1,-6.7,30.72,NNW,336,0.0,1.0,80,0.00,,---,0.00,VWS V14.01,2013-12-25 08:30:00,
2013-12-25 01:35:00,-3.0,-8.7,30.72,NNW,336,2.0,3.0,76,0.00,,---,0.00,VWS V14.01,2013-12-25 08:35:00,
2013-12-25 01:40:00,-4.0,-9.4,30.72,NNW,336,2.0,3.0,77,0.00,,---,0.00,VWS V14.01,2013-12-25 08:40:00,
2013-12-25 01:45:00,-3.2,-7.3,30.72,NNW,331,10.0,11.0,82,0.00,,---,0.00,VWS V14.01,2013-12-25 08:45:00,
2013-12-25 01:50:00,-2.9,-7.3,30.72,NNW,331,3.0,5.0,81,0.00,,---,0.00,VWS V14.01,2013-12-25 08:50:00,
2013-12-25 01:55:00,-3.4,-8.3,30.72,NNW,331,0.0,2.0,79,0.00,,---,0.00,VWS V14.01,2013-12-25 08:55:00,
2013-12-25 02:00:00,-3.6,-8.2,30.72,NNW,331,0.0,0.0,80,0.00,,---,0.00,VWS V14.01,2013-12-25 09:00:00,
2013-12-25 02:05:00,-4.0,-8.9,30.73,NNW,331,0.0,0.0,79,0.00,,---,0.00,VWS V14.01,2013-12-25 09:05:00,
2013-12-25 02:10:00,-5.1,-10.4,30.73,NNW,331,0.0,0.0,77,0.00,,---,0.00,VWS V14.01,2013-12-25 09:10:00,
2013-12-25 02:15:00,-5.7,-10.3,30.73,NNW,331,0.0,0.0,80,0.00,,---,0.00,VWS V14.01,2013-12-25 09:15:00,
2013-12-25 02:20:00,-5.5,-9.6,30.73,NNW,331,0.0,1.0,82,0.00,,---,0.00,VWS V14.01,2013-12-25 09:20:00,
2013-12-25 02:25:00,-5.4,-9.2,30.73,NNW,331,2.0,2.0,83,0.00,,---,0.00,VWS V14.01,2013-12-25 09:25:00,
2013-12-25 02:30:00,-5.2,-8.8,30.73,NNW,331,2.0,2.0,84,0.00,,---,0.00,VWS V14.01,2013-12-25 09:30:00,
2013-12-25 02:35:00,-4.8,-8.1,30.74,NNW,331,1.0,2.0,85,0.00,,---,0.00,VWS V14.01,2013-12-25 09:35:00,
2013-12-25 02:40:00,-4.8,-8.1,30.74,NNW,331,3.0,4.0,85,0.00,,---,0.00,VWS V14.01,2013-12-25 09:40:00,
2013-12-25 02:45:00,-5.7,-9.5,30.74,NNW,331,2.0,2.0,83,0.00,,---,0.00,VWS V14.01,2013-12-25 09:45:00,
2013-12-25 02:50:00,-6.1,-9.9,30.75,NNW,331,0.0,0.0,83,0.00,,---,0.00,VWS V14.01,2013-12-25 09:50:00,
2013-12-25 02:55:00,-5.5,-8.8,30.74,NNW,331,4.0,4.0,85,0.00,,---,0.00,VWS V14.01,2013-12-25 09:55:00,
2013-12-25 03:00:00,-4.8,-8.1,30.74,NNW,331,2.0,4.0,85,0.00,,---,0.00,VWS V14.01,2013-12-25 10:00:00,
2013-12-25 03:05:00,-4.6,-7.9,30.75,NNW,331,0.0,0.0,85,0.00,,---,0.00,VWS V14.01,2013-12-25 10:05:00,
2013-12-25 03:10:00,-5.0,-8.6,30.75,NNW,331,1.0,1.0,84,0.00,,---,0.00,VWS V14.01,2013-12-25 10:10:00,
2013-12-25 03:15:00,-5.7,-9.8,30.75,NNW,331,1.0,2.0,82,0.00,,---,0.00,VWS V14.01,2013-12-25 10:15:00,
2013-12-25 03:20:00,-5.9,-9.7,30.75,NNW,331,0.0,0.0,83,0.00,,---,0.00,VWS V14.01,2013-12-25 10:20:00,
2013-12-25 03:25:00,-5.9,-9.5,30.76,NNW,331,0.0,0.0,84,0.00,,---,0.00,VWS V14.01,2013-12-25 10:25:00,
2013-12-25 03:30:00,-5.7,-9.0,30.76,NNW,331,2.0,2.0,85,0.00,,---,0.00,VWS V14.01,2013-12-25 10:30:00,
2013-12-25 03:36:00,-5.6,-8.9,30.76,NNW,331,0.0,0.0,85,0.00,,---,0.00,VWS V14.01,2013-12-25 10:36:00,
2013-12-25 03:41:00,-5.7,-9.3,30.76,NNW,331,0.0,0.0,84,0.00,,---,0.00,VWS V14.01,2013-12-25 10:41:00,
2013-12-25 03:46:00,-5.8,-9.4,30.76,NNW,331,0.0,0.0,84,0.00,,---,0.00,VWS V14.01,2013-12-25 10:46:00,
2013-12-25 03:51:00,-6.1,-9.7,30.76,NNW,331,0.0,0.0,84,0.00,,---,0.00,VWS V14.01,2013-12-25 10:51:00,
2013-12-25 03:56:00,-6.3,-9.9,30.76,NNW,331,0.0,0.0,84,0.00,,---,0.00,VWS V14.01,2013-12-25 10:56:00,
2013-12-25 04:01:00,-6.2,-9.8,30.76,NNW,331,0.0,0.0,84,0.00,,---,0.00,VWS V14.01,2013-12-25 11:01:00,
2013-12-25 04:06:00,-5.7,-9.0,30.77,NNW,331,0.0,0.0,85,0.00,,---,0.00,VWS V14.01,2013-12-25 11:06:00,
2013-12-25 04:11:00,-5.4,-8.5,30.77,NNW,331,0.0,0.0,86,0.00,,---,0.00,VWS V14.01,2013-12-25 11:11:00,
2013-12-25 04:16:00,-5.5,-8.8,30.77,NNW,331,0.0,0.0,85,0.00,,---,0.00,VWS V14.01,2013-12-25 11:16:00,
2013-12-25 04:21:00,-5.5,-8.8,30.77,NNW,331,0.0,0.0,85,0.00,,---,0.00,VWS V14.01,2013-12-25 11:21:00,
2013-12-25 04:26:00,-5.1,-8.2,30.78,NNW,331,0.0,0.0,86,0.00,,---,0.00,VWS V14.01,2013-12-25 11:26:00,
2013-12-25 04:31:00,-5.2,-8.5,30.78,NNW,331,0.0,1.0,85,0.00,,---,0.00,VWS V14.01,2013-12-25 11:31:00,
2013-12-25 04:36:00,-5.7,-9.5,30.78,NNW,331,0.0,0.0,83,0.00,,---,0.00,VWS V14.01,2013-12-25 11:36:00,
2013-12-25 04:41:00,-6.4,-10.2,30.78,NNW,331,0.0,0.0,83,0.00,,---,0.00,VWS V14.01,2013-12-25 11:41:00,
2013-12-25 04:46:00,-6.7,-10.5,30.79,NNW,331,0.0,0.0,83,0.00,,---,0.00,VWS V14.01,2013-12-25 11:46:00,
2013-12-25 04:51:00,-6.8,-10.4,30.79,NNW,331,0.0,0.0,84,0.00,,---,0.00,VWS V14.01,2013-12-25 11:51:00,
2013-12-25 04:56:00,-6.9,-10.4,30.79,NNW,331,0.0,0.0,84,0.00,,---,0.00,VWS V14.01,2013-12-25 11:56:00,
2013-12-25 05:01:00,-7.0,-10.6,30.79,NNW,331,0.0,0.0,84,0.00,,---,0.00,VWS V14.01,2013-12-25 12:01:00,
2013-12-25 05:06:00,-7.1,-10.6,30.79,NNW,331,0.0,0.0,84,0.00,,---,0.00,VWS V14.01,2013-12-25 12:06:00,
2013-12-25 05:11:00,-7.1,-10.6,30.80,NNW,331,0.0,0.0,84,0.00,,---,0.00,VWS V14.01,2013-12-25 12:11:00,
2013-12-25 05:16:00,-7.3,-10.8,30.80,NNW,331,0.0,0.0,84,0.00,,---,0.00,VWS V14.01,2013-12-25 12:16:00,
2013-12-25 05:21:00,-7.6,-11.1,30.80,NNW,331,0.0,0.0,84,0.00,,---,0.00,VWS V14.01,2013-12-25 12:21:00,
2013-12-25 05:26:00,-7.5,-11.0,30.80,NNW,331,0.0,0.0,84,0.00,,---,0.00,VWS V14.01,2013-12-25 12:26:00,
2013-12-25 05:31:00,-7.2,-10.5,30.81,NNW,331,2.0,2.0,85,0.00,,---,0.00,VWS V14.01,2013-12-25 12:31:00,
2013-12-25 05:36:00,-7.1,-10.4,30.81,NNW,331,0.0,4.0,85,0.00,,---,0.00,VWS V14.01,2013-12-25 12:36:00,
2013-12-25 05:41:00,-6.6,-9.7,30.81,NNW,331,0.0,1.0,86,0.00,,---,0.00,VWS V14.01,2013-12-25 12:41:00,
2013-12-25 05:46:00,-6.5,-9.8,30.82,NNW,331,1.0,2.0,85,0.00,,---,0.00,VWS V14.01,2013-12-25 12:46:00,
2013-12-25 05:51:00,-6.0,-9.1,30.82,NNW,331,0.0,1.0,86,0.00,,---,0.00,VWS V14.01,2013-12-25 12:51:00,
2013-12-25 05:56:00,-6.2,-9.5,30.82,NNW,331,0.0,0.0,85,0.00,,---,0.00,VWS V14.01,2013-12-25 12:56:00,
2013-12-25 06:01:00,-6.6,-10.4,30.82,NNW,331,0.0,0.0,83,0.00,,---,0.00,VWS V14.01,2013-12-25 13:01:00,
2013-12-25 06:06:00,-7.1,-11.1,30.82,NNW,331,0.0,0.0,82,0.00,,---,0.00,VWS V14.01,2013-12-25 13:06:00,
2013-12-25 06:11:00,-7.7,-12.0,30.82,NNW,331,0.0,1.0,81,0.00,,---,0.00,VWS V14.01,2013-12-25 13:11:00,
2013-12-25 06:16:00,-8.1,-12.1,30.83,NNW,331,2.0,2.0,82,0.00,,---,0.00,VWS V14.01,2013-12-25 13:16:00,
2013-12-25 06:21:00,-7.6,-11.1,30.83,NNW,331,1.0,2.0,84,0.00,,---,0.00,VWS V14.01,2013-12-25 13:21:00,
2013-12-25 06:26:00,-7.7,-11.2,30.83,NNW,331,0.0,0.0,84,0.00,,---,0.00,VWS V14.01,2013-12-25 13:26:00,
2013-12-25 06:31:00,-7.6,-11.1,30.83,NNW,331,4.0,5.0,84,0.00,,---,0.00,VWS V14.01,2013-12-25 13:31:00,
2013-12-25 06:36:00,-7.0,-10.1,30.83,NNW,331,3.0,3.0,86,0.00,,---,0.00,VWS V14.01,2013-12-25 13:36:00,
2013-12-25 06:41:00,-8.5,-12.5,30.83,NNW,331,5.0,5.0,82,0.00,,---,0.00,VWS V14.01,2013-12-25 13:41:00,
2013-12-25 06:46:00,-9.9,-14.1,30.83,NNW,331,0.0,0.0,81,0.00,,---,0.00,VWS V14.01,2013-12-25 13:46:00,
2013-12-25 06:51:00,-9.7,-13.4,30.83,NNW,331,1.0,1.0,83,0.00,,---,0.00,VWS V14.01,2013-12-25 13:51:00,
2013-12-25 06:56:00,-9.0,-12.3,30.83,NNW,331,0.0,0.0,85,0.00,,---,0.00,VWS V14.01,2013-12-25 13:56:00,
2013-12-25 07:01:00,-8.4,-11.4,30.84,NNW,331,0.0,0.0,86,0.00,,---,0.00,VWS V14.01,2013-12-25 14:01:00,
2013-12-25 07:07:00,-7.9,-11.0,30.84,NNW,331,1.0,1.0,86,0.00,,---,0.00,VWS V14.01,2013-12-25 14:07:00,
2013-12-25 07:12:00,-7.9,-11.2,30.84,NNW,331,0.0,0.0,85,0.00,,---,0.00,VWS V14.01,2013-12-25 14:12:00,
2013-12-25 07:17:00,-7.9,-11.2,30.84,NNW,331,0.0,0.0,85,0.00,,---,0.00,VWS V14.01,2013-12-25 14:17:00,
2013-12-25 07:22:00,-8.0,-11.3,30.85,NNW,331,2.0,2.0,85,0.00,,---,0.00,VWS V14.01,2013-12-25 14:22:00,
2013-12-25 07:27:00,-8.4,-11.9,30.85,NNW,331,0.0,0.0,84,0.00,,---,0.00,VWS V14.01,2013-12-25 14:27:00,
2013-12-25 07:32:00,-8.6,-12.1,30.85,NNW,331,2.0,2.0,84,0.00,,---,0.00,VWS V14.01,2013-12-25 14:32:00,
2013-12-25 07:37:00,-8.6,-12.1,30.86,NNW,331,1.0,1.0,84,0.00,,---,0.00,VWS V14.01,2013-12-25 14:37:00,
2013-12-25 07:42:00,-8.6,-12.1,30.85,NNW,331,4.0,4.0,84,0.00,,---,0.00,VWS V14.01,2013-12-25 14:42:00,
2013-12-25 07:47:00,-5.8,-8.7,30.86,NNW,331,3.0,5.0,87,0.00,,---,0.00,VWS V14.01,2013-12-25 14:47:00,
2013-12-25 07:52:00,-6.1,-9.4,30.86,NNW,331,0.0,0.0,85,0.00,,---,0.00,VWS V14.01,2013-12-25 14:52:00,
2013-12-25 07:57:00,-10.1,-14.1,30.86,NNW,331,0.0,1.0,82,0.00,,---,0.00,VWS V14.01,2013-12-25 14:57:00,
2013-12-25 08:02:00,-10.2,-13.7,30.87,NNW,331,0.0,0.0,84,0.00,,---,0.00,VWS V14.01,2013-12-25 15:02:00,
2013-12-25 08:07:00,-12.0,-15.7,30.88,NNW,331,0.0,0.0,83,0.00,,---,0.00,VWS V14.01,2013-12-25 15:07:00,
2013-12-25 08:12:00,-11.6,-15.1,30.88,NNW,331,4.0,4.0,84,0.00,,---,0.00,VWS V14.01,2013-12-25 15:12:00,
2013-12-25 08:17:00,-6.7,-9.1,30.89,NNW,331,2.0,3.0,89,0.00,,---,0.00,VWS V14.01,2013-12-25 15:17:00,
2013-12-25 08:22:00,-7.3,-10.8,30.89,NNW,331,0.0,0.0,84,0.00,,---,0.00,VWS V14.01,2013-12-25 15:22:00,
2013-12-25 08:27:00,-8.4,-12.2,30.90,NNW,331,3.0,3.0,83,0.00,,---,0.00,VWS V14.01,2013-12-25 15:27:00,
2013-12-25 08:32:00,-8.6,-12.1,30.91,NNW,329,4.0,5.0,84,0.00,,---,0.00,VWS V14.01,2013-12-25 15:32:00,
2013-12-25 08:37:00,-7.5,-10.8,30.91,NNW,329,3.0,5.0,85,0.00,,---,0.00,VWS V14.01,2013-12-25 15:37:00,
2013-12-25 08:42:00,-8.9,-12.7,30.92,NNW,329,0.0,0.0,83,0.00,,---,0.00,VWS V14.01,2013-12-25 15:42:00,
2013-12-25 08:47:00,-5.4,-8.7,30.92,NNW,329,1.0,1.0,85,0.00,,---,0.00,VWS V14.01,2013-12-25 15:47:00,
2013-12-25 08:52:00,-7.9,-11.9,30.93,NNW,329,0.0,2.0,82,0.00,,---,0.00,VWS V14.01,2013-12-25 15:52:00,
2013-12-25 08:57:00,-5.6,-8.9,30.93,NNW,329,0.0,2.0,85,0.00,,---,0.00,VWS V14.01,2013-12-25 15:57:00,
2013-12-25 09:02:00,-4.2,-7.6,30.93,NNW,329,0.0,0.0,85,0.00,,---,0.00,VWS V14.01,2013-12-25 16:02:00,
2013-12-25 09:07:00,-3.2,-6.8,30.93,NNW,329,0.0,0.0,84,0.00,,---,0.00,VWS V14.01,2013-12-25 16:07:00,
2013-12-25 09:12:00,-3.9,-7.8,30.94,NNW,329,0.0,0.0,83,0.00,,---,0.00,VWS V14.01,2013-12-25 16:12:00,
2013-12-25 09:17:00,-3.6,-7.2,30.94,NNW,329,0.0,0.0,84,0.00,,---,0.00,VWS V14.01,2013-12-25 16:17:00,
2013-12-25 09:22:00,-1.9,-5.3,30.94,NNW,329,4.0,5.0,85,0.00,,---,0.00,VWS V14.01,2013-12-25 16:22:00,
2013-12-25 09:27:00,-0.8,-4.5,30.94,NNW,330,7.0,7.0,84,0.00,,---,0.00,VWS V14.01,2013-12-25 16:27:00,
2013-12-25 09:32:00,-0.1,-3.7,30.95,NNW,331,2.0,4.0,84,0.00,,---,0.00,VWS V14.01,2013-12-25 16:32:00,
2013-12-25 09:37:00,-1.4,-5.6,30.95,NNW,331,0.0,0.0,82,0.00,,---,0.00,VWS V14.01,2013-12-25 16:37:00,
2013-12-25 09:42:00,-1.5,-5.4,30.95,NNW,331,0.0,0.0,83,0.00,,---,0.00,VWS V14.01,2013-12-25 16:42:00,
2013-12-25 09:47:00,-0.5,-4.4,30.96,NNW,331,0.0,1.0,83,0.00,,---,0.00,VWS V14.01,2013-12-25 16:47:00,
2013-12-25 09:52:00,-1.0,-5.2,30.96,NNW,331,0.0,0.0,82,0.00,,---,0.00,VWS V14.01,2013-12-25 16:52:00,
2013-12-25 09:57:00,-0.2,-4.4,30.96,NNW,331,0.0,0.0,82,0.00,,---,0.00,VWS V14.01,2013-12-25 16:57:00,
2013-12-25 10:02:00,-0.1,-4.4,30.96,NNW,331,0.0,0.0,81,0.00,,---,0.00,VWS V14.01,2013-12-25 17:02:00,
2013-12-25 10:07:00,0.1,-4.6,30.96,NNW,331,0.0,0.0,80,0.00,,---,0.00,VWS V14.01,2013-12-25 17:07:00,
2013-12-25 10:12:00,-1.7,-6.3,30.97,NNW,331,3.0,3.0,80,0.00,,---,0.00,VWS V14.01,2013-12-25 17:12:00,
2013-12-25 10:17:00,0.6,-3.8,30.97,NNW,331,0.0,0.0,81,0.00,,---,0.00,VWS V14.01,2013-12-25 17:17:00,
2013-12-25 10:22:00,2.3,-2.7,30.97,NNW,331,0.0,0.0,79,0.00,,---,0.00,VWS V14.01,2013-12-25 17:22:00,
2013-12-25 10:28:00,2.6,-3.0,30.97,NNW,331,0.0,0.0,77,0.00,,---,0.00,VWS V14.01,2013-12-25 17:28:00,
2013-12-25 10:33:00,2.7,-3.1,30.97,NNW,331,0.0,0.0,76,0.00,,---,0.00,VWS V14.01,2013-12-25 17:33:00,
2013-12-25 10:38:00,2.9,-2.9,30.97,NNW,331,0.0,0.0,76,0.00,,---,0.00,VWS V14.01,2013-12-25 17:38:00,
2013-12-25 10:43:00,3.0,-2.8,30.97,NNW,331,2.0,3.0,76,0.00,,---,0.00,VWS V14.01,2013-12-25 17:43:00,
2013-12-25 10:48:00,3.7,-1.9,30.97,NNW,331,3.0,4.0,77,0.00,,---,0.00,VWS V14.01,2013-12-25 17:48:00,
2013-12-25 10:53:00,5.2,-0.7,30.98,NNW,331,3.0,4.0,76,0.00,,---,0.00,VWS V14.01,2013-12-25 17:53:00,
2013-12-25 10:58:00,6.6,0.7,30.98,NNW,331,3.0,5.0,76,0.00,,---,0.00,VWS V14.01,2013-12-25 17:58:00,
2013-12-25 11:03:00,7.6,0.8,30.98,NNW,331,1.0,2.0,73,0.00,,---,0.00,VWS V14.01,2013-12-25 18:03:00,
2013-12-25 11:08:00,6.3,-1.4,30.98,NNW,331,0.0,0.0,70,0.00,,---,0.00,VWS V14.01,2013-12-25 18:08:00,
2013-12-25 11:13:00,5.6,-0.9,30.98,NNW,331,0.0,1.0,74,0.00,,---,0.00,VWS V14.01,2013-12-25 18:13:00,
2013-12-25 11:18:00,6.6,-0.2,30.98,NNW,331,0.0,0.0,73,0.00,,---,0.00,VWS V14.01,2013-12-25 18:18:00,
2013-12-25 11:23:00,7.8,0.4,30.98,NNW,331,0.0,0.0,71,0.00,,---,0.00,VWS V14.01,2013-12-25 18:23:00,
2013-12-25 11:28:00,7.9,-0.1,30.98,NNW,331,0.0,0.0,69,0.00,,---,0.00,VWS V14.01,2013-12-25 18:28:00,
2013-12-25 11:33:00,8.1,-0.3,30.97,NNW,331,0.0,0.0,68,0.00,,---,0.00,VWS V14.01,2013-12-25 18:33:00,
2013-12-25 11:38:00,9.1,1.0,30.98,NNW,331,0.0,0.0,69,0.00,,---,0.00,VWS V14.01,2013-12-25 18:38:00,
2013-12-25 11:43:00,8.6,0.2,30.97,NNW,331,0.0,0.0,68,0.00,,---,0.00,VWS V14.01,2013-12-25 18:43:00,
2013-12-25 11:48:00,7.8,-0.2,30.97,NNW,331,0.0,0.0,69,0.00,,---,0.00,VWS V14.01,2013-12-25 18:48:00,
2013-12-25 11:53:00,8.4,0.6,30.97,NNW,331,0.0,0.0,70,0.00,,---,0.00,VWS V14.01,2013-12-25 18:53:00,
2013-12-25 11:58:00,9.4,1.3,30.96,NNW,331,0.0,0.0,69,0.00,,---,0.00,VWS V14.01,2013-12-25 18:58:00,
2013-12-25 12:03:00,10.4,1.0,30.96,NNW,331,0.0,0.0,65,0.00,,---,0.00,VWS V14.01,2013-12-25 19:03:00,
2013-12-25 12:08:00,11.2,0.7,30.96,NNW,331,0.0,0.0,62,0.00,,---,0.00,VWS V14.01,2013-12-25 19:08:00,
2013-12-25 12:13:00,10.7,0.9,30.96,NNW,331,0.0,0.0,64,0.00,,---,0.00,VWS V14.01,2013-12-25 19:13:00,
2013-12-25 12:18:00,11.0,1.2,30.96,NNW,331,0.0,0.0,64,0.00,,---,0.00,VWS V14.01,2013-12-25 19:18:00,
2013-12-25 12:23:00,11.2,1.1,30.95,NNW,331,0.0,0.0,63,0.00,,---,0.00,VWS V14.01,2013-12-25 19:23:00,
2013-12-25 12:28:00,12.1,1.9,30.95,NNW,331,0.0,0.0,63,0.00,,---,0.00,VWS V14.01,2013-12-25 19:28:00,
2013-12-25 12:33:00,12.6,1.7,30.96,NNW,331,0.0,0.0,61,0.00,,---,0.00,VWS V14.01,2013-12-25 19:33:00,
2013-12-25 12:38:00,12.2,2.0,30.95,NNW,331,0.0,0.0,63,0.00,,---,0.00,VWS V14.01,2013-12-25 19:38:00,
2013-12-25 12:43:00,12.2,0.6,30.95,NNW,331,0.0,0.0,59,0.00,,---,0.00,VWS V14.01,2013-12-25 19:43:00,
2013-12-25 12:44:00,12.2,0.6,30.96,NNW,331,0.0,0.0,59,0.00,,---,0.00,VWS V14.01,2013-12-25 19:44:00,
2013-12-25 12:49:00,12.3,1.1,30.95,NNW,331,0.0,0.0,60,0.00,,---,0.00,VWS V14.01,2013-12-25 19:49:00,
2013-12-25 12:54:00,12.3,1.8,30.95,NNW,331,0.0,0.0,62,0.00,,---,0.00,VWS V14.01,2013-12-25 19:54:00,
2013-12-25 12:59:00,12.7,2.2,30.95,NNW,331,0.0,0.0,62,0.00,,---,0.00,VWS V14.01,2013-12-25 19:59:00,
2013-12-25 13:04:00,13.4,2.5,30.95,NNW,331,0.0,0.0,61,0.00,,---,0.00,VWS V14.01,2013-12-25 20:04:00,
2013-12-25 13:09:00,14.0,1.6,30.96,NNW,331,0.0,0.0,57,0.00,,---,0.00,VWS V14.01,2013-12-25 20:09:00,
2013-12-25 13:14:00,13.8,3.5,30.96,NNW,331,0.0,0.0,63,0.00,,---,0.00,VWS V14.01,2013-12-25 20:14:00,
2013-12-25 13:19:00,14.8,3.1,30.95,NNW,331,0.0,0.0,59,0.00,,---,0.00,VWS V14.01,2013-12-25 20:19:00,
2013-12-25 13:24:00,14.9,2.4,30.96,NNW,331,0.0,0.0,57,0.00,,---,0.00,VWS V14.01,2013-12-25 20:24:00,
2013-12-25 13:29:00,14.8,2.0,30.96,NNW,331,0.0,0.0,56,0.00,,---,0.00,VWS V14.01,2013-12-25 20:29:00,
2013-12-25 13:34:00,14.8,2.3,30.96,NNW,331,0.0,0.0,57,0.00,,---,0.00,VWS V14.01,2013-12-25 20:34:00,
2013-12-25 13:39:00,14.2,1.8,30.96,NNW,331,0.0,0.0,57,0.00,,---,0.00,VWS V14.01,2013-12-25 20:39:00,
2013-12-25 13:44:00,14.2,2.2,30.96,NNW,331,0.0,0.0,58,0.00,,---,0.00,VWS V14.01,2013-12-25 20:44:00,
2013-12-25 13:49:00,14.5,3.2,30.96,NNW,331,0.0,0.0,60,0.00,,---,0.00,VWS V14.01,2013-12-25 20:49:00,
2013-12-25 13:54:00,14.4,2.3,30.95,NNW,331,0.0,0.0,58,0.00,,---,0.00,VWS V14.01,2013-12-25 20:54:00,
2013-12-25 13:59:00,14.3,2.6,30.95,NNW,331,0.0,0.0,59,0.00,,---,0.00,VWS V14.01,2013-12-25 20:59:00,
2013-12-25 14:04:00,15.5,2.2,30.95,NNW,331,0.0,0.0,55,0.00,,---,0.00,VWS V14.01,2013-12-25 21:04:00,
2013-12-25 14:09:00,15.2,1.5,30.96,NNW,331,0.0,0.0,54,0.00,,---,0.00,VWS V14.01,2013-12-25 21:09:00,
2013-12-25 14:14:00,15.2,2.0,30.96,NNW,331,0.0,0.0,55,0.00,,---,0.00,VWS V14.01,2013-12-25 21:14:00,
2013-12-25 14:19:00,15.7,2.0,30.96,NNW,331,3.0,3.0,54,0.00,,---,0.00,VWS V14.01,2013-12-25 21:19:00,
2013-12-25 14:24:00,15.3,1.6,30.96,NNW,331,1.0,1.0,54,0.00,,---,0.00,VWS V14.01,2013-12-25 21:24:00,
2013-12-25 14:29:00,15.5,1.4,30.96,NNW,331,2.0,2.0,53,0.00,,---,0.00,VWS V14.01,2013-12-25 21:29:00,
2013-12-25 14:34:00,15.1,1.9,30.96,NNW,331,1.0,2.0,55,0.00,,---,0.00,VWS V14.01,2013-12-25 21:34:00,
2013-12-25 14:39:00,15.0,2.5,30.96,NNW,331,0.0,0.0,57,0.00,,---,0.00,VWS V14.01,2013-12-25 21:39:00,
2013-12-25 14:45:00,15.0,3.3,30.97,NNW,331,0.0,0.0,59,0.00,,---,0.00,VWS V14.01,2013-12-25 21:45:00,
2013-12-25 14:50:00,15.2,3.5,30.97,NNW,331,0.0,0.0,59,0.00,,---,0.00,VWS V14.01,2013-12-25 21:50:00,
2013-12-25 14:55:00,14.5,3.2,30.97,NNW,331,1.0,2.0,60,0.00,,---,0.00,VWS V14.01,2013-12-25 21:55:00,
2013-12-25 15:00:00,14.8,3.1,30.97,NNW,331,4.0,4.0,59,0.00,,---,0.00,VWS V14.01,2013-12-25 22:00:00,
2013-12-25 15:05:00,14.8,3.1,30.97,NNW,331,5.0,5.0,59,0.00,,---,0.00,VWS V14.01,2013-12-25 22:05:00,
2013-12-25 15:10:00,15.8,1.3,30.98,NNW,331,1.0,2.0,52,0.00,,---,0.00,VWS V14.01,2013-12-25 22:10:00,
2013-12-25 15:15:00,17.1,1.7,30.98,NNW,331,0.0,0.0,50,0.00,,---,0.00,VWS V14.01,2013-12-25 22:15:00,
2013-12-25 15:20:00,15.1,2.2,30.98,NNW,331,0.0,0.0,56,0.00,,---,0.00,VWS V14.01,2013-12-25 22:20:00,
2013-12-25 15:25:00,14.5,2.4,30.97,NNW,331,2.0,2.0,58,0.00,,---,0.00,VWS V14.01,2013-12-25 22:25:00,
2013-12-25 15:30:00,15.4,1.7,30.97,NNW,331,0.0,0.0,54,0.00,,---,0.00,VWS V14.01,2013-12-25 22:30:00,
2013-12-25 15:35:00,15.4,2.5,30.97,NNW,331,0.0,0.0,56,0.00,,---,0.00,VWS V14.01,2013-12-25 22:35:00,
2013-12-25 15:40:00,15.5,3.4,30.98,NNW,331,0.0,0.0,58,0.00,,---,0.00,VWS V14.01,2013-12-25 22:40:00,
2013-12-25 15:45:00,14.9,3.2,30.98,NNW,331,0.0,0.0,59,0.00,,---,0.00,VWS V14.01,2013-12-25 22:45:00,
2013-12-25 15:50:00,15.0,3.3,30.98,NNW,331,3.0,3.0,59,0.00,,---,0.00,VWS V14.01,2013-12-25 22:50:00,
2013-12-25 15:55:00,15.1,3.0,30.98,NNW,331,3.0,3.0,58,0.00,,---,0.00,VWS V14.01,2013-12-25 22:55:00,
2013-12-25 16:00:00,13.3,1.3,30.99,NNW,331,0.0,0.0,58,0.00,,---,0.00,VWS V14.01,2013-12-25 23:00:00,
2013-12-25 16:05:00,13.4,1.8,30.99,NNW,331,0.0,0.0,59,0.00,,---,0.00,VWS V14.01,2013-12-25 23:05:00,
2013-12-25 16:10:00,13.4,1.4,30.99,NNW,331,0.0,0.0,58,0.00,,---,0.00,VWS V14.01,2013-12-25 23:10:00,
2013-12-25 16:15:00,13.0,0.6,30.99,NNW,331,0.0,2.0,57,0.00,,---,0.00,VWS V14.01,2013-12-25 23:15:00,
2013-12-25 16:20:00,12.2,-0.5,31.00,NNW,331,3.0,3.0,56,0.00,,---,0.00,VWS V14.01,2013-12-25 23:20:00,
2013-12-25 16:25:00,11.6,0.1,31.00,NNW,331,3.0,4.0,59,0.00,,---,0.00,VWS V14.01,2013-12-25 23:25:00,
2013-12-25 16:30:00,11.6,0.1,30.99,NNW,331,5.0,6.0,59,0.00,,---,0.00,VWS V14.01,2013-12-25 23:30:00,
2013-12-25 16:35:00,11.7,0.2,30.99,NNW,331,6.0,7.0,59,0.00,,---,0.00,VWS V14.01,2013-12-25 23:35:00,
2013-12-25 16:40:00,11.9,0.7,31.00,NNW,331,1.0,3.0,60,0.00,,---,0.00,VWS V14.01,2013-12-25 23:40:00,
2013-12-25 16:45:00,11.3,-0.6,31.00,NNW,331,3.0,3.0,58,0.00,,---,0.00,VWS V14.01,2013-12-25 23:45:00,
2013-12-25 16:50:00,10.7,0.3,31.00,NNW,331,0.0,0.0,62,0.00,,---,0.00,VWS V14.01,2013-12-25 23:50:00,
2013-12-25 16:55:00,10.2,-0.2,31.00,NNW,331,0.0,0.0,62,0.00,,---,0.00,VWS V14.01,2013-12-25 23:55:00,
2013-12-25 17:00:00,9.7,-0.3,31.01,NNW,331,0.0,0.0,63,0.00,,---,0.00,VWS V14.01,2013-12-26 00:00:00,
2013-12-25 17:05:00,9.1,-0.3,31.01,NNW,331,2.0,3.0,65,0.00,,---,0.00,VWS V14.01,2013-12-26 00:05:00,
2013-12-25 17:10:00,8.9,0.2,31.02,NNW,331,4.0,6.0,67,0.00,,---,0.00,VWS V14.01,2013-12-26 00:10:00,
2013-12-25 17:15:00,9.1,0.4,31.02,NNW,331,5.0,6.0,67,0.00,,---,0.00,VWS V14.01,2013-12-26 00:15:00,
2013-12-25 17:20:00,9.5,0.8,31.02,NNW,331,4.0,6.0,67,0.00,,---,0.00,VWS V14.01,2013-12-26 00:20:00,
2013-12-25 17:25:00,9.5,-0.5,31.02,NNW,331,3.0,5.0,63,0.00,,---,0.00,VWS V14.01,2013-12-26 00:25:00,
2013-12-25 17:30:00,8.6,-0.7,31.03,NNW,331,3.0,3.0,65,0.00,,---,0.00,VWS V14.01,2013-12-26 00:30:00,
2013-12-25 17:35:00,7.8,-0.9,31.03,NNW,331,0.0,0.0,67,0.00,,---,0.00,VWS V14.01,2013-12-26 00:35:00,
2013-12-25 17:40:00,7.5,-0.8,31.03,NNW,331,0.0,0.0,68,0.00,,---,0.00,VWS V14.01,2013-12-26 00:40:00,
2013-12-25 17:45:00,7.4,-0.9,31.04,NNW,331,3.0,4.0,68,0.00,,---,0.00,VWS V14.01,2013-12-26 00:45:00,
2013-12-25 17:50:00,7.1,-1.5,31.04,NNW,331,0.0,0.0,67,0.00,,---,0.00,VWS V14.01,2013-12-26 00:50:00,
2013-12-25 17:55:00,7.1,-0.6,31.04,NNW,331,0.0,0.0,70,0.00,,---,0.00,VWS V14.01,2013-12-26 00:55:00,
2013-12-25 18:00:00,7.1,-0.6,31.04,NNW,331,0.0,0.0,70,0.00,,---,0.00,VWS V14.01,2013-12-26 01:00:00,
2013-12-25 18:06:00,7.3,-0.1,31.05,NNW,331,2.0,2.0,71,0.00,,---,0.00,VWS V14.01,2013-12-26 01:06:00,
2013-12-25 18:11:00,7.4,-0.3,31.05,NNW,331,7.0,7.0,70,0.00,,---,0.00,VWS V14.01,2013-12-26 01:11:00,
2013-12-25 18:16:00,7.3,-0.4,31.05,NNW,331,0.0,0.0,70,0.00,,---,0.00,VWS V14.01,2013-12-26 01:16:00,
2013-12-25 18:21:00,7.2,-0.5,31.05,NNW,331,0.0,0.0,70,0.00,,---,0.00,VWS V14.01,2013-12-26 01:21:00,
2013-12-25 18:26:00,7.2,-0.5,31.05,NNW,331,0.0,0.0,70,0.00,,---,0.00,VWS V14.01,2013-12-26 01:26:00,
2013-12-25 18:31:00,6.8,-1.2,31.05,NNW,331,4.0,4.0,69,0.00,,---,0.00,VWS V14.01,2013-12-26 01:31:00,
2013-12-25 18:36:00,6.2,-0.9,31.05,NNW,331,9.0,9.0,72,0.00,,---,0.00,VWS V14.01,2013-12-26 01:36:00,
2013-12-25 18:41:00,6.5,0.3,31.06,NNW,331,3.0,3.0,75,0.00,,---,0.00,VWS V14.01,2013-12-26 01:41:00,
2013-12-25 18:46:00,7.1,1.1,31.06,NNW,331,0.0,0.0,76,0.00,,---,0.00,VWS V14.01,2013-12-26 01:46:00,
2013-12-25 18:51:00,6.9,-0.2,31.06,NNW,331,5.0,7.0,72,0.00,,---,0.00,VWS V14.01,2013-12-26 01:51:00,
2013-12-25 18:56:00,6.6,-0.5,31.07,NNW,331,9.0,9.0,72,0.00,,---,0.00,VWS V14.01,2013-12-26 01:56:00,
2013-12-25 19:01:00,6.0,-1.4,31.06,NNW,331,0.0,0.0,71,0.00,,---,0.00,VWS V14.01,2013-12-26 02:01:00,
2013-12-25 19:06:00,5.5,-1.3,31.07,NNW,331,0.0,2.0,73,0.00,,---,0.00,VWS V14.01,2013-12-26 02:06:00,
2013-12-25 19:11:00,5.6,-0.3,31.07,NNW,331,0.0,0.0,76,0.00,,---,0.00,VWS V14.01,2013-12-26 02:11:00,
2013-12-25 19:16:00,6.4,1.0,31.07,NNW,331,1.0,2.0,78,0.00,,---,0.00,VWS V14.01,2013-12-26 02:16:00,
2013-12-25 19:21:00,7.1,0.9,31.07,NNW,331,3.0,4.0,75,0.00,,---,0.00,VWS V14.01,2013-12-26 02:21:00,
2013-12-25 19:26:00,5.8,-2.2,31.08,NNW,331,4.0,5.0,69,0.00,,---,0.00,VWS V14.01,2013-12-26 02:26:00,
2013-12-25 19:31:00,4.5,-1.1,31.08,NNW,331,1.0,1.0,77,0.00,,---,0.00,VWS V14.01,2013-12-26 02:31:00,
2013-12-25 19:36:00,3.0,-3.7,31.08,NNW,331,2.0,2.0,73,0.00,,---,0.00,VWS V14.01,2013-12-26 02:36:00,
2013-12-25 19:41:00,2.9,-2.4,31.08,NNW,331,0.0,2.0,78,0.00,,---,0.00,VWS V14.01,2013-12-26 02:41:00,
2013-12-25 19:46:00,3.3,-1.5,31.08,NNW,331,0.0,0.0,80,0.00,,---,0.00,VWS V14.01,2013-12-26 02:46:00,
2013-12-25 19:51:00,4.1,-0.2,31.09,NNW,331,0.0,1.0,82,0.00,,---,0.00,VWS V14.01,2013-12-26 02:51:00,
2013-12-25 19:56:00,4.7,0.7,31.09,NNW,331,0.0,0.0,83,0.00,,---,0.00,VWS V14.01,2013-12-26 02:56:00,
2013-12-25 20:01:00,5.1,3.0,31.09,NNW,331,1.0,2.0,91,0.00,,---,0.00,VWS V14.01,2013-12-26 03:01:00,
2013-12-25 20:06:00,5.3,0.5,31.09,NNW,331,3.0,4.0,80,0.00,,---,0.00,VWS V14.01,2013-12-26 03:06:00,
2013-12-25 20:11:00,5.3,-0.1,31.09,NNW,331,5.0,6.0,78,0.00,,---,0.00,VWS V14.01,2013-12-26 03:11:00,
2013-12-25 20:16:00,4.4,-2.0,31.09,NNW,331,9.0,10.0,74,0.00,,---,0.00,VWS V14.01,2013-12-26 03:16:00,
2013-12-25 20:21:00,3.7,-1.9,31.09,NNW,331,6.0,8.0,77,0.00,,---,0.00,VWS V14.01,2013-12-26 03:21:00,
2013-12-25 20:26:00,3.6,-2.0,31.09,NNW,331,10.0,10.0,77,0.00,,---,0.00,VWS V14.01,2013-12-26 03:26:00,
2013-12-25 20:31:00,3.1,-2.5,31.10,NNW,331,2.0,3.0,77,0.00,,---,0.00,VWS V14.01,2013-12-26 03:31:00,
2013-12-25 20:36:00,3.0,-2.0,31.09,NNW,331,0.0,3.0,79,0.00,,---,0.00,VWS V14.01,2013-12-26 03:36:00,
2013-12-25 20:41:00,3.3,-1.5,31.09,NNW,331,6.0,7.0,80,0.00,,---,0.00,VWS V14.01,2013-12-26 03:41:00,
2013-12-25 20:46:00,3.8,-1.2,31.09,NNW,331,5.0,5.0,79,0.00,,---,0.00,VWS V14.01,2013-12-26 03:46:00,
2013-12-25 20:51:00,4.8,0.3,31.10,NNW,331,7.0,7.0,81,0.00,,---,0.00,VWS V14.01,2013-12-26 03:51:00,
2013-12-25 20:56:00,4.6,-1.3,31.09,NNW,331,12.0,12.0,76,0.00,,---,0.00,VWS V14.01,2013-12-26 03:56:00,
2013-12-25 21:01:00,3.8,-2.1,31.10,NNW,332,4.0,4.0,76,0.00,,---,0.00,VWS V14.01,2013-12-26 04:01:00,
2013-12-25 21:06:00,3.9,-1.4,31.10,NNW,332,0.0,0.0,78,0.00,,---,0.00,VWS V14.01,2013-12-26 04:06:00,
2013-12-25 21:11:00,4.4,-0.4,31.10,NNW,332,0.0,0.0,80,0.00,,---,0.00,VWS V14.01,2013-12-26 04:11:00,
2013-12-25 21:16:00,4.5,-0.6,31.10,NNW,332,0.0,0.0,79,0.00,,---,0.00,VWS V14.01,2013-12-26 04:16:00,
2013-12-25 21:21:00,4.8,-0.3,31.10,NNW,332,0.0,0.0,79,0.00,,---,0.00,VWS V14.01,2013-12-26 04:21:00,
2013-12-25 21:26:00,4.9,-0.7,31.10,NNW,332,0.0,0.0,77,0.00,,---,0.00,VWS V14.01,2013-12-26 04:26:00,
2013-12-25 21:31:00,4.6,-1.6,31.10,NNW,332,0.0,0.0,75,0.00,,---,0.00,VWS V14.01,2013-12-26 04:31:00,
2013-12-25 21:36:00,3.7,-3.3,31.10,NNW,332,0.0,0.0,72,0.00,,---,0.00,VWS V14.01,2013-12-26 04:36:00,
2013-12-25 21:41:00,2.6,-3.8,31.11,NNW,332,2.0,2.0,74,0.00,,---,0.00,VWS V14.01,2013-12-26 04:41:00,
2013-12-25 21:47:00,1.9,-3.6,31.11,NNW,332,1.0,1.0,77,0.00,,---,0.00,VWS V14.01,2013-12-26 04:47:00,
2013-12-25 21:52:00,1.7,-3.3,31.11,NNW,332,0.0,0.0,79,0.00,,---,0.00,VWS V14.01,2013-12-26 04:52:00,
2013-12-25 21:57:00,1.5,-3.0,31.11,NNW,332,0.0,0.0,81,0.00,,---,0.00,VWS V14.01,2013-12-26 04:57:00,
2013-12-25 22:01:00,1.8,-2.4,31.11,NNW,332,3.0,3.0,82,0.00,,---,0.00,VWS V14.01,2013-12-26 05:01:00,
2013-12-25 22:03:00,2.2,-1.8,31.11,NNW,332,9.0,10.0,83,0.00,,---,0.00,VWS V14.01,2013-12-26 05:03:00,
2013-12-25 22:08:00,2.8,-1.7,31.11,NNW,332,7.0,10.0,81,0.00,,---,0.00,VWS V14.01,2013-12-26 05:08:00,
2013-12-25 22:13:00,2.9,-1.6,31.11,NNW,332,0.0,1.0,81,0.00,,---,0.00,VWS V14.01,2013-12-26 05:13:00,
2013-12-25 22:18:00,3.2,-1.3,31.11,NNW,332,0.0,2.0,81,0.00,,---,0.00,VWS V14.01,2013-12-26 05:18:00,
2013-12-25 22:23:00,3.2,-1.6,31.11,NNW,331,5.0,7.0,80,0.00,,---,0.00,VWS V14.01,2013-12-26 05:23:00,
2013-12-25 22:28:00,2.7,-2.6,31.11,NNW,331,2.0,3.0,78,0.00,,---,0.00,VWS V14.01,2013-12-26 05:28:00,
2013-12-25 22:33:00,2.0,-3.3,31.11,NNW,331,1.0,1.0,78,0.00,,---,0.00,VWS V14.01,2013-12-26 05:33:00,
2013-12-25 22:38:00,1.4,-3.6,31.12,NNW,331,0.0,0.0,79,0.00,,---,0.00,VWS V14.01,2013-12-26 05:38:00,
2013-12-25 22:43:00,1.4,-3.1,31.12,NNW,331,0.0,0.0,81,0.00,,---,0.00,VWS V14.01,2013-12-26 05:43:00,
2013-12-25 22:48:00,2.2,-1.8,31.12,NNW,331,3.0,4.0,83,0.00,,---,0.00,VWS V14.01,2013-12-26 05:48:00,
2013-12-25 22:53:00,3.6,-0.1,31.12,NNW,331,6.0,6.0,84,0.00,,---,0.00,VWS V14.01,2013-12-26 05:53:00,
2013-12-25 22:58:00,4.6,0.1,31.12,NNW,331,0.0,0.0,81,0.00,,---,0.00,VWS V14.01,2013-12-26 05:58:00,
2013-12-25 23:03:00,4.3,-1.3,31.12,NNW,331,0.0,0.0,77,0.00,,---,0.00,VWS V14.01,2013-12-26 06:03:00,
2013-12-25 23:08:00,3.7,-2.2,31.12,NNW,331,0.0,0.0,76,0.00,,---,0.00,VWS V14.01,2013-12-26 06:08:00,
2013-12-25 23:14:00,3.1,-2.5,31.12,NNW,331,3.0,3.0,77,0.00,,---,0.00,VWS V14.01,2013-12-26 06:14:00,
2013-12-25 23:19:00,2.7,-2.6,31.12,NNW,331,1.0,1.0,78,0.00,,---,0.00,VWS V14.01,2013-12-26 06:19:00,
2013-12-25 23:24:00,2.0,-3.8,31.11,NNW,331,0.0,0.0,76,0.00,,---,0.00,VWS V14.01,2013-12-26 06:24:00,
2013-12-25 23:29:00,1.4,-4.1,31.11,NNW,331,0.0,0.0,77,0.00,,---,0.00,VWS V14.01,2013-12-26 06:29:00,
2013-12-25 23:34:00,0.9,-4.9,31.11,NNW,331,0.0,0.0,76,0.00,,---,0.00,VWS V14.01,2013-12-26 06:34:00,
2013-12-25 23:39:00,-0.1,-5.6,31.11,NNW,331,0.0,0.0,77,0.00,,---,0.00,VWS V14.01,2013-12-26 06:39:00,
2013-12-25 23:44:00,-0.3,-5.0,31.11,NNW,331,2.0,4.0,80,0.00,,---,0.00,VWS V14.01,2013-12-26 06:44:00,
2013-12-25 23:49:00,0.2,-4.0,31.11,NNW,331,3.0,4.0,82,0.00,,---,0.00,VWS V14.01,2013-12-26 06:49:00,
2013-12-25 23:54:00,0.7,-3.2,31.10,NNW,331,2.0,2.0,83,0.00,,---,0.00,VWS V14.01,2013-12-26 06:54:00,
2013-12-25 23:59:00,1.0,-2.7,31.11,NNW,331,0.0,0.0,84,0.00,,---,0.00,VWS V14.01,2013-12-26 06:59:00,